sensor_id;sensor_type;location;lat;lon;timestamp;pressure;altitude;pressure_sealevel;temperature;humidity
28008;BME280;15333;50.010;20.020;2023-03-25T00:00:42;97682.81;;;12.00;82.67
28008;BME280;15333;50.010;20.020;2023-03-25T00:03:56;97683.81;;;11.99;82.31
28008;BME280;15333;50.010;20.020;2023-03-25T00:06:57;97686.50;;;11.99;82.40
28008;BME280;15333;50.010;20.020;2023-03-25T00:09:58;97681.59;;;12.12;81.48
28008;BME280;15333;50.010;20.020;2023-03-25T00:12:59;97676.50;;;12.09;81.52
28008;BME280;15333;50.010;20.020;2023-03-25T00:16:04;97679.44;;;12.15;81.36
28008;BME280;15333;50.010;20.020;2023-03-25T00:19:06;97686.56;;;12.07;81.81
28008;BME280;15333;50.010;20.020;2023-03-25T00:22:09;97671.09;;;12.19;81.12
28008;BME280;15333;50.010;20.020;2023-03-25T00:25:11;97668.16;;;12.30;79.73
28008;BME280;15333;50.010;20.020;2023-03-25T00:28:17;97655.78;;;12.29;79.45
28008;BME280;15333;50.010;20.020;2023-03-25T00:31:17;97667.94;;;12.23;79.39
28008;BME280;15333;50.010;20.020;2023-03-25T00:34:18;97656.91;;;12.26;79.78
28008;BME280;15333;50.010;20.020;2023-03-25T00:37:19;97658.91;;;12.24;79.19
28008;BME280;15333;50.010;20.020;2023-03-25T00:40:22;97648.25;;;12.32;79.22
28008;BME280;15333;50.010;20.020;2023-03-25T00:43:23;97650.00;;;12.41;78.86
28008;BME280;15333;50.010;20.020;2023-03-25T00:46:27;97645.69;;;12.31;79.67
28008;BME280;15333;50.010;20.020;2023-03-25T00:49:28;97646.66;;;12.22;79.94
28008;BME280;15333;50.010;20.020;2023-03-25T00:52:29;97645.41;;;12.16;80.67
28008;BME280;15333;50.010;20.020;2023-03-25T00:55:30;97655.25;;;12.07;80.75
28008;BME280;15333;50.010;20.020;2023-03-25T00:58:31;97651.94;;;12.13;80.73
28008;BME280;15333;50.010;20.020;2023-03-25T01:01:32;97651.13;;;12.39;79.83
28008;BME280;15333;50.010;20.020;2023-03-25T01:04:34;97651.13;;;12.39;78.96
28008;BME280;15333;50.010;20.020;2023-03-25T01:07:36;97651.69;;;12.42;79.34
28008;BME280;15333;50.010;20.020;2023-03-25T01:10:40;97646.97;;;12.62;78.38
28008;BME280;15333;50.010;20.020;2023-03-25T01:13:41;97648.53;;;12.47;78.59
28008;BME280;15333;50.010;20.020;2023-03-25T01:16:42;97651.56;;;12.52;78.48
28008;BME280;15333;50.010;20.020;2023-03-25T01:19:43;97654.53;;;12.41;79.06
28008;BME280;15333;50.010;20.020;2023-03-25T01:22:45;97647.47;;;12.40;79.34
28008;BME280;15333;50.010;20.020;2023-03-25T01:25:45;97649.78;;;12.35;79.35
28008;BME280;15333;50.010;20.020;2023-03-25T01:28:47;97643.34;;;12.28;80.75
28008;BME280;15333;50.010;20.020;2023-03-25T01:31:47;97642.66;;;12.26;81.08
28008;BME280;15333;50.010;20.020;2023-03-25T01:34:48;97649.00;;;12.25;80.58
28008;BME280;15333;50.010;20.020;2023-03-25T01:37:49;97649.84;;;12.25;81.23
28008;BME280;15333;50.010;20.020;2023-03-25T01:40:54;97650.31;;;12.21;81.73
28008;BME280;15333;50.010;20.020;2023-03-25T01:44:09;97651.31;;;12.20;81.69
28008;BME280;15333;50.010;20.020;2023-03-25T01:47:10;97658.38;;;12.21;82.44
28008;BME280;15333;50.010;20.020;2023-03-25T01:50:11;97645.59;;;12.14;82.38
28008;BME280;15333;50.010;20.020;2023-03-25T01:53:14;97647.66;;;12.21;82.31
28008;BME280;15333;50.010;20.020;2023-03-25T01:56:19;97638.69;;;12.12;82.80
28008;BME280;15333;50.010;20.020;2023-03-25T01:59:26;97637.81;;;12.11;82.84
28008;BME280;15333;50.010;20.020;2023-03-25T02:02:27;97627.81;;;12.13;83.26
28008;BME280;15333;50.010;20.020;2023-03-25T02:05:54;97629.94;;;12.10;83.44
28008;BME280;15333;50.010;20.020;2023-03-25T02:08:59;97632.22;;;12.23;83.94
28008;BME280;15333;50.010;20.020;2023-03-25T02:12:02;97624.34;;;12.21;83.92
28008;BME280;15333;50.010;20.020;2023-03-25T02:15:05;97627.09;;;12.11;84.49
28008;BME280;15333;50.010;20.020;2023-03-25T02:18:19;97629.84;;;12.20;84.58
28008;BME280;15333;50.010;20.020;2023-03-25T02:25:22;97628.69;;;12.22;84.43
28008;BME280;15333;50.010;20.020;2023-03-25T02:45:04;97639.81;;;12.09;85.86
28008;BME280;15333;50.010;20.020;2023-03-25T02:48:16;97646.41;;;11.97;86.95
28008;BME280;15333;50.010;20.020;2023-03-25T02:51:26;97650.25;;;12.12;86.46
28008;BME280;15333;50.010;20.020;2023-03-25T02:54:30;97650.88;;;12.06;87.07
28008;BME280;15333;50.010;20.020;2023-03-25T02:57:34;97650.09;;;11.96;87.64
28008;BME280;15333;50.010;20.020;2023-03-25T03:00:38;97646.41;;;11.97;87.95
28008;BME280;15333;50.010;20.020;2023-03-25T03:03:39;97642.75;;;11.98;88.69
28008;BME280;15333;50.010;20.020;2023-03-25T03:06:42;97649.31;;;12.04;88.28
28008;BME280;15333;50.010;20.020;2023-03-25T03:09:46;97656.00;;;12.00;89.04
28008;BME280;15333;50.010;20.020;2023-03-25T03:16:49;97653.97;;;12.02;90.32
28008;BME280;15333;50.010;20.020;2023-03-25T03:23:29;97660.09;;;11.94;91.58
28008;BME280;15333;50.010;20.020;2023-03-25T03:26:58;97658.59;;;11.92;92.07
28008;BME280;15333;50.010;20.020;2023-03-25T03:30:33;97661.13;;;11.93;93.38
28008;BME280;15333;50.010;20.020;2023-03-25T03:33:38;97659.44;;;11.92;93.77
28008;BME280;15333;50.010;20.020;2023-03-25T03:36:45;97670.41;;;11.99;94.33
28008;BME280;15333;50.010;20.020;2023-03-25T03:39:49;97673.22;;;11.97;95.02
28008;BME280;15333;50.010;20.020;2023-03-25T03:42:57;97673.50;;;11.94;95.46
28008;BME280;15333;50.010;20.020;2023-03-25T03:46:04;97678.88;;;11.94;96.04
28008;BME280;15333;50.010;20.020;2023-03-25T03:49:09;97687.09;;;11.93;96.08
28008;BME280;15333;50.010;20.020;2023-03-25T03:52:18;97690.78;;;11.92;95.81
28008;BME280;15333;50.010;20.020;2023-03-25T03:55:28;97686.53;;;11.89;96.66
28008;BME280;15333;50.010;20.020;2023-03-25T03:58:37;97697.59;;;11.86;96.71
28008;BME280;15333;50.010;20.020;2023-03-25T04:01:50;97685.09;;;11.95;95.25
28008;BME280;15333;50.010;20.020;2023-03-25T04:04:53;97701.78;;;11.89;93.30
28008;BME280;15333;50.010;20.020;2023-03-25T04:08:11;97701.78;;;11.89;93.37
28008;BME280;15333;50.010;20.020;2023-03-25T04:11:19;97708.59;;;11.83;94.11
28008;BME280;15333;50.010;20.020;2023-03-25T04:14:22;97706.38;;;11.79;93.73
28008;BME280;15333;50.010;20.020;2023-03-25T04:17:23;97703.22;;;11.83;91.63
28008;BME280;15333;50.010;20.020;2023-03-25T04:20:24;97717.34;;;11.85;91.65
28008;BME280;15333;50.010;20.020;2023-03-25T04:23:29;97712.25;;;11.82;90.93
28008;BME280;15333;50.010;20.020;2023-03-25T04:26:30;97717.94;;;11.79;91.61
28008;BME280;15333;50.010;20.020;2023-03-25T04:29:33;97726.41;;;11.74;90.09
28008;BME280;15333;50.010;20.020;2023-03-25T04:32:34;97729.81;;;11.67;87.55
28008;BME280;15333;50.010;20.020;2023-03-25T04:35:34;97731.25;;;11.61;84.35
28008;BME280;15333;50.010;20.020;2023-03-25T04:38:35;97733.53;;;11.56;83.64
28008;BME280;15333;50.010;20.020;2023-03-25T04:41:37;97720.66;;;11.32;82.35
28008;BME280;15333;50.010;20.020;2023-03-25T04:44:39;97729.03;;;11.20;81.31
28008;BME280;15333;50.010;20.020;2023-03-25T04:47:39;97729.47;;;11.15;81.11
28008;BME280;15333;50.010;20.020;2023-03-25T04:50:44;97726.66;;;11.07;82.19
28008;BME280;15333;50.010;20.020;2023-03-25T04:53:45;97728.38;;;10.98;82.46
28008;BME280;15333;50.010;20.020;2023-03-25T04:56:47;97736.41;;;10.98;81.25
28008;BME280;15333;50.010;20.020;2023-03-25T04:59:49;97734.03;;;10.86;81.72
28008;BME280;15333;50.010;20.020;2023-03-25T05:02:53;97737.13;;;10.81;81.07
28008;BME280;15333;50.010;20.020;2023-03-25T05:05:54;97751.09;;;10.85;81.85
28008;BME280;15333;50.010;20.020;2023-03-25T05:08:56;97756.56;;;10.83;81.41
28008;BME280;15333;50.010;20.020;2023-03-25T05:11:57;97759.81;;;10.77;81.09
28008;BME280;15333;50.010;20.020;2023-03-25T05:14:58;97760.81;;;10.67;81.18
28008;BME280;15333;50.010;20.020;2023-03-25T05:17:59;97766.72;;;10.60;82.02
28008;BME280;15333;50.010;20.020;2023-03-25T05:21:01;97762.78;;;10.65;82.04
28008;BME280;15333;50.010;20.020;2023-03-25T05:24:07;97761.66;;;10.57;82.69
28008;BME280;15333;50.010;20.020;2023-03-25T05:27:10;97762.25;;;10.51;82.63
28008;BME280;15333;50.010;20.020;2023-03-25T05:30:10;97770.13;;;10.43;83.55
28008;BME280;15333;50.010;20.020;2023-03-25T05:33:14;97772.34;;;10.38;83.59
28008;BME280;15333;50.010;20.020;2023-03-25T05:36:16;97758.28;;;10.36;83.51
28008;BME280;15333;50.010;20.020;2023-03-25T05:39:17;97765.88;;;10.31;84.03
28008;BME280;15333;50.010;20.020;2023-03-25T05:42:18;97759.66;;;10.31;84.96
28008;BME280;15333;50.010;20.020;2023-03-25T05:45:22;97764.19;;;10.40;84.28
28008;BME280;15333;50.010;20.020;2023-03-25T05:48:23;97779.94;;;10.33;85.33
28008;BME280;15333;50.010;20.020;2023-03-25T05:51:25;97778.00;;;10.35;85.81
28008;BME280;15333;50.010;20.020;2023-03-25T05:54:26;97782.50;;;10.35;86.48
28008;BME280;15333;50.010;20.020;2023-03-25T05:57:28;97785.00;;;10.27;88.21
28008;BME280;15333;50.010;20.020;2023-03-25T06:00:29;97789.50;;;10.26;89.41
28008;BME280;15333;50.010;20.020;2023-03-25T06:03:31;97783.59;;;10.32;89.40
28008;BME280;15333;50.010;20.020;2023-03-25T06:06:33;97783.34;;;10.35;90.39
28008;BME280;15333;50.010;20.020;2023-03-25T06:09:35;97781.66;;;10.34;90.02
28008;BME280;15333;50.010;20.020;2023-03-25T06:12:37;97774.50;;;10.44;89.56
28008;BME280;15333;50.010;20.020;2023-03-25T06:15:38;97785.59;;;10.49;89.59
28008;BME280;15333;50.010;20.020;2023-03-25T06:18:41;97790.38;;;10.55;88.69
28008;BME280;15333;50.010;20.020;2023-03-25T06:21:42;97795.31;;;10.50;88.80
28008;BME280;15333;50.010;20.020;2023-03-25T06:24:43;97796.84;;;10.53;88.07
28008;BME280;15333;50.010;20.020;2023-03-25T06:27:46;97803.50;;;10.58;89.29
28008;BME280;15333;50.010;20.020;2023-03-25T06:30:48;97801.66;;;10.69;88.03
28008;BME280;15333;50.010;20.020;2023-03-25T06:33:50;97796.16;;;10.60;87.10
28008;BME280;15333;50.010;20.020;2023-03-25T06:36:51;97795.31;;;10.70;86.70
28008;BME280;15333;50.010;20.020;2023-03-25T06:39:53;97802.47;;;10.88;85.78
28008;BME280;15333;50.010;20.020;2023-03-25T06:42:56;97792.03;;;11.14;85.39
28008;BME280;15333;50.010;20.020;2023-03-25T06:46:20;97805.00;;;11.09;85.68
28008;BME280;15333;50.010;20.020;2023-03-25T06:49:39;97806.00;;;11.08;84.79
28008;BME280;15333;50.010;20.020;2023-03-25T06:52:41;97813.19;;;10.98;86.30
28008;BME280;15333;50.010;20.020;2023-03-25T06:55:41;97811.81;;;10.94;86.54
28008;BME280;15333;50.010;20.020;2023-03-25T06:58:44;97811.22;;;10.81;87.15
28008;BME280;15333;50.010;20.020;2023-03-25T07:01:45;97824.47;;;10.92;87.21
28008;BME280;15333;50.010;20.020;2023-03-25T07:04:46;97816.28;;;11.03;86.21
28008;BME280;15333;50.010;20.020;2023-03-25T07:07:47;97814.31;;;11.05;86.11
28008;BME280;15333;50.010;20.020;2023-03-25T07:10:48;97813.16;;;11.17;86.16
28008;BME280;15333;50.010;20.020;2023-03-25T07:13:50;97814.31;;;11.15;85.14
28008;BME280;15333;50.010;20.020;2023-03-25T07:16:53;97814.44;;;11.13;85.47
28008;BME280;15333;50.010;20.020;2023-03-25T07:19:54;97825.03;;;11.05;85.70
28008;BME280;15333;50.010;20.020;2023-03-25T07:22:55;97816.38;;;11.30;83.89
28008;BME280;15333;50.010;20.020;2023-03-25T07:25:56;97813.69;;;11.30;84.36
28008;BME280;15333;50.010;20.020;2023-03-25T07:28:57;97815.13;;;11.34;83.43
28008;BME280;15333;50.010;20.020;2023-03-25T07:31:58;97811.72;;;11.32;82.69
28008;BME280;15333;50.010;20.020;2023-03-25T07:34:59;97807.47;;;11.49;82.59
28008;BME280;15333;50.010;20.020;2023-03-25T07:38:00;97811.38;;;11.55;82.08
28008;BME280;15333;50.010;20.020;2023-03-25T07:41:09;97813.47;;;11.61;82.26
28008;BME280;15333;50.010;20.020;2023-03-25T07:44:10;97814.09;;;11.92;81.96
28008;BME280;15333;50.010;20.020;2023-03-25T07:47:13;97818.03;;;11.97;80.63
28008;BME280;15333;50.010;20.020;2023-03-25T07:50:13;97802.44;;;12.10;81.40
28008;BME280;15333;50.010;20.020;2023-03-25T07:53:15;97809.06;;;12.34;80.07
28008;BME280;15333;50.010;20.020;2023-03-25T07:56:16;97801.97;;;12.60;79.85
28008;BME280;15333;50.010;20.020;2023-03-25T07:59:17;97802.19;;;12.84;79.00
28008;BME280;15333;50.010;20.020;2023-03-25T08:02:18;97801.66;;;12.99;78.42
28008;BME280;15333;50.010;20.020;2023-03-25T08:05:19;97794.00;;;12.68;79.81
28008;BME280;15333;50.010;20.020;2023-03-25T08:08:23;97787.97;;;13.10;78.57
28008;BME280;15333;50.010;20.020;2023-03-25T08:11:24;97793.59;;;12.99;78.11
28008;BME280;15333;50.010;20.020;2023-03-25T08:14:25;97801.25;;;12.93;78.92
28008;BME280;15333;50.010;20.020;2023-03-25T08:17:26;97804.63;;;12.95;78.88
28008;BME280;15333;50.010;20.020;2023-03-25T08:20:27;97805.88;;;12.83;78.38
28008;BME280;15333;50.010;20.020;2023-03-25T08:23:29;97809.41;;;12.66;80.42
28008;BME280;15333;50.010;20.020;2023-03-25T08:26:31;97813.84;;;12.75;79.43
28008;BME280;15333;50.010;20.020;2023-03-25T08:29:35;97811.56;;;12.98;79.10
28008;BME280;15333;50.010;20.020;2023-03-25T08:32:36;97810.78;;;13.06;78.64
28008;BME280;15333;50.010;20.020;2023-03-25T08:35:38;97802.88;;;13.04;78.66
28008;BME280;15333;50.010;20.020;2023-03-25T08:38:40;97797.50;;;13.04;75.98
28008;BME280;15333;50.010;20.020;2023-03-25T08:41:42;97811.53;;;12.80;76.22
28008;BME280;15333;50.010;20.020;2023-03-25T08:44:43;97810.09;;;13.04;75.31
28008;BME280;15333;50.010;20.020;2023-03-25T08:47:44;97806.34;;;13.14;73.56
28008;BME280;15333;50.010;20.020;2023-03-25T08:50:45;97803.34;;;13.00;73.94
28008;BME280;15333;50.010;20.020;2023-03-25T08:53:46;97793.91;;;13.39;72.59
28008;BME280;15333;50.010;20.020;2023-03-25T08:56:47;97793.19;;;13.89;70.00
28008;BME280;15333;50.010;20.020;2023-03-25T08:59:48;97794.16;;;13.80;69.21
28008;BME280;15333;50.010;20.020;2023-03-25T09:02:49;97806.69;;;13.97;67.84
28008;BME280;15333;50.010;20.020;2023-03-25T09:05:51;97804.84;;;13.71;67.50
28008;BME280;15333;50.010;20.020;2023-03-25T09:08:52;97787.16;;;13.95;66.16
28008;BME280;15333;50.010;20.020;2023-03-25T09:11:55;97788.63;;;14.23;63.07
28008;BME280;15333;50.010;20.020;2023-03-25T09:14:56;97786.47;;;13.93;63.38
28008;BME280;15333;50.010;20.020;2023-03-25T09:17:57;97784.25;;;14.22;62.15
28008;BME280;15333;50.010;20.020;2023-03-25T09:20:59;97781.72;;;14.29;59.56
28008;BME280;15333;50.010;20.020;2023-03-25T09:24:00;97769.16;;;14.37;59.56
28008;BME280;15333;50.010;20.020;2023-03-25T09:27:01;97760.78;;;14.57;59.11
28008;BME280;15333;50.010;20.020;2023-03-25T09:30:04;97759.13;;;14.56;58.52
28008;BME280;15333;50.010;20.020;2023-03-25T09:33:06;97750.88;;;14.57;57.56
28008;BME280;15333;50.010;20.020;2023-03-25T09:36:07;97745.19;;;14.76;55.92
28008;BME280;15333;50.010;20.020;2023-03-25T09:39:08;97742.63;;;15.07;55.53
28008;BME280;15333;50.010;20.020;2023-03-25T09:42:21;97741.53;;;15.65;54.08
28008;BME280;15333;50.010;20.020;2023-03-25T09:45:43;97732.41;;;15.74;53.18
28008;BME280;15333;50.010;20.020;2023-03-25T09:48:47;97727.00;;;15.82;53.29
28008;BME280;15333;50.010;20.020;2023-03-25T09:51:50;97732.38;;;15.82;51.09
28008;BME280;15333;50.010;20.020;2023-03-25T09:54:59;97732.13;;;15.45;51.00
28008;BME280;15333;50.010;20.020;2023-03-25T09:58:21;97715.78;;;16.01;50.62
28008;BME280;15333;50.010;20.020;2023-03-25T10:11:26;97701.75;;;15.67;50.09
28008;BME280;15333;50.010;20.020;2023-03-25T10:18:50;97692.59;;;15.84;49.08
28008;BME280;15333;50.010;20.020;2023-03-25T10:21:43;97700.06;;;15.66;49.69
28008;BME280;15333;50.010;20.020;2023-03-25T10:25:01;97698.78;;;15.54;48.40
28008;BME280;15333;50.010;20.020;2023-03-25T10:28:05;97701.81;;;15.35;48.51
28008;BME280;15333;50.010;20.020;2023-03-25T10:31:14;97693.34;;;15.70;48.57
28008;BME280;15333;50.010;20.020;2023-03-25T10:34:18;97680.50;;;16.03;49.19
28008;BME280;15333;50.010;20.020;2023-03-25T10:37:25;97682.69;;;16.30;46.82
28008;BME280;15333;50.010;20.020;2023-03-25T10:40:29;97689.63;;;16.33;46.81
28008;BME280;15333;50.010;20.020;2023-03-25T10:43:34;97681.66;;;16.62;46.78
28008;BME280;15333;50.010;20.020;2023-03-25T10:46:41;97678.41;;;16.67;46.85
28008;BME280;15333;50.010;20.020;2023-03-25T10:49:48;97671.22;;;16.97;47.46
28008;BME280;15333;50.010;20.020;2023-03-25T10:52:50;97683.75;;;15.98;48.16
28008;BME280;15333;50.010;20.020;2023-03-25T10:56:09;97681.22;;;15.50;46.76
28008;BME280;15333;50.010;20.020;2023-03-25T10:59:22;97672.06;;;15.75;46.97
28008;BME280;15333;50.010;20.020;2023-03-25T11:02:27;97666.41;;;15.46;48.41
28008;BME280;15333;50.010;20.020;2023-03-25T11:05:29;97663.34;;;15.57;47.04
28008;BME280;15333;50.010;20.020;2023-03-25T11:08:30;97648.16;;;15.95;46.10
28008;BME280;15333;50.010;20.020;2023-03-25T11:11:35;97645.41;;;16.34;44.27
28008;BME280;15333;50.010;20.020;2023-03-25T11:14:37;97640.00;;;16.34;44.87
28008;BME280;15333;50.010;20.020;2023-03-25T11:17:40;97643.81;;;16.17;44.45
28008;BME280;15333;50.010;20.020;2023-03-25T11:20:54;97631.00;;;16.19;45.35
28008;BME280;15333;50.010;20.020;2023-03-25T11:23:57;97636.28;;;15.81;47.21
28008;BME280;15333;50.010;20.020;2023-03-25T11:26:59;97630.19;;;15.79;48.00
28008;BME280;15333;50.010;20.020;2023-03-25T11:30:04;97626.97;;;15.45;47.15
28008;BME280;15333;50.010;20.020;2023-03-25T11:33:13;97621.19;;;15.64;47.27
28008;BME280;15333;50.010;20.020;2023-03-25T11:36:28;97618.09;;;15.75;48.29
28008;BME280;15333;50.010;20.020;2023-03-25T11:39:39;97622.25;;;15.55;48.77
28008;BME280;15333;50.010;20.020;2023-03-25T11:42:43;97623.13;;;15.78;49.94
28008;BME280;15333;50.010;20.020;2023-03-25T11:45:49;97626.63;;;15.48;50.67
28008;BME280;15333;50.010;20.020;2023-03-25T11:48:50;97623.72;;;15.18;51.68
28008;BME280;15333;50.010;20.020;2023-03-25T11:52:21;97613.22;;;15.32;49.54
28008;BME280;15333;50.010;20.020;2023-03-25T11:55:34;97608.03;;;15.69;48.43
28008;BME280;15333;50.010;20.020;2023-03-25T11:58:37;97614.81;;;15.88;43.79
28008;BME280;15333;50.010;20.020;2023-03-25T12:01:45;97620.13;;;15.73;42.29
28008;BME280;15333;50.010;20.020;2023-03-25T12:05:08;97606.06;;;16.09;42.41
28008;BME280;15333;50.010;20.020;2023-03-25T12:08:16;97606.75;;;16.11;41.97
28008;BME280;15333;50.010;20.020;2023-03-25T12:11:28;97610.56;;;16.16;42.54
28008;BME280;15333;50.010;20.020;2023-03-25T12:14:52;97609.50;;;16.48;43.83
28008;BME280;15333;50.010;20.020;2023-03-25T12:38:31;97642.69;;;13.79;58.48
28008;BME280;15333;50.010;20.020;2023-03-25T12:42:01;97651.59;;;13.63;57.58
28008;BME280;15333;50.010;20.020;2023-03-25T12:51:20;97667.09;;;13.78;55.89
28008;BME280;15333;50.010;20.020;2023-03-25T12:54:32;97657.75;;;14.14;54.58
28008;BME280;15333;50.010;20.020;2023-03-25T12:58:16;97646.38;;;14.61;53.14
28008;BME280;15333;50.010;20.020;2023-03-25T13:05:20;97669.50;;;14.05;55.76
28008;BME280;15333;50.010;20.020;2023-03-25T13:08:18;97673.94;;;13.30;54.92
28008;BME280;15333;50.010;20.020;2023-03-25T13:14:35;97668.16;;;13.17;54.47
28008;BME280;15333;50.010;20.020;2023-03-25T13:17:47;97653.97;;;13.32;54.25
28008;BME280;15333;50.010;20.020;2023-03-25T13:24:22;97653.03;;;13.16;54.94
28008;BME280;15333;50.010;20.020;2023-03-25T13:27:37;97651.09;;;13.26;54.52
28008;BME280;15333;50.010;20.020;2023-03-25T13:30:42;97653.25;;;12.97;54.51
28008;BME280;15333;50.010;20.020;2023-03-25T13:33:52;97637.06;;;12.88;54.33
28008;BME280;15333;50.010;20.020;2023-03-25T13:46:28;97626.44;;;13.97;51.25
28008;BME280;15333;50.010;20.020;2023-03-25T13:52:46;97624.91;;;13.86;50.42
28008;BME280;15333;50.010;20.020;2023-03-25T14:09:59;97624.44;;;13.91;51.74
28008;BME280;15333;50.010;20.020;2023-03-25T14:13:12;97621.56;;;13.84;51.98
28008;BME280;15333;50.010;20.020;2023-03-25T14:16:17;97619.97;;;13.65;52.47
28008;BME280;15333;50.010;20.020;2023-03-25T14:19:29;97627.38;;;13.71;52.45
28008;BME280;15333;50.010;20.020;2023-03-25T14:22:35;97621.72;;;13.83;52.06
28008;BME280;15333;50.010;20.020;2023-03-25T14:25:42;97629.09;;;13.81;52.98
28008;BME280;15333;50.010;20.020;2023-03-25T14:28:44;97633.84;;;13.95;53.49
28008;BME280;15333;50.010;20.020;2023-03-25T14:38:50;97621.75;;;14.07;53.20
28008;BME280;15333;50.010;20.020;2023-03-25T14:45:39;97627.50;;;14.20;53.75
28008;BME280;15333;50.010;20.020;2023-03-25T14:51:55;97608.66;;;14.69;51.90
28008;BME280;15333;50.010;20.020;2023-03-25T14:55:01;97615.91;;;14.76;51.84
28008;BME280;15333;50.010;20.020;2023-03-25T14:58:21;97616.59;;;14.38;51.50
28008;BME280;15333;50.010;20.020;2023-03-25T15:01:29;97617.75;;;14.19;51.02
28008;BME280;15333;50.010;20.020;2023-03-25T15:04:35;97624.75;;;13.88;51.49
28008;BME280;15333;50.010;20.020;2023-03-25T15:11:02;97603.06;;;13.81;51.96
28008;BME280;15333;50.010;20.020;2023-03-25T15:14:08;97608.94;;;13.93;51.62
28008;BME280;15333;50.010;20.020;2023-03-25T15:17:12;97610.63;;;13.86;52.35
28008;BME280;15333;50.010;20.020;2023-03-25T15:20:33;97614.31;;;13.93;51.69
28008;BME280;15333;50.010;20.020;2023-03-25T15:26:48;97613.44;;;13.68;52.54
28008;BME280;15333;50.010;20.020;2023-03-25T15:33:38;97632.16;;;13.44;50.88
28008;BME280;15333;50.010;20.020;2023-03-25T15:47:38;97633.78;;;12.51;50.30
28008;BME280;15333;50.010;20.020;2023-03-25T15:54:24;97634.75;;;12.42;50.36
28008;BME280;15333;50.010;20.020;2023-03-25T15:57:32;97644.34;;;12.27;50.59
28008;BME280;15333;50.010;20.020;2023-03-25T16:00:39;97638.81;;;12.28;49.53
28008;BME280;15333;50.010;20.020;2023-03-25T16:03:43;97640.59;;;12.20;49.82
28008;BME280;15333;50.010;20.020;2023-03-25T16:06:47;97639.19;;;12.15;50.27
28008;BME280;15333;50.010;20.020;2023-03-25T16:09:50;97653.06;;;12.11;51.14
28008;BME280;15333;50.010;20.020;2023-03-25T16:12:52;97657.59;;;12.10;52.03
28008;BME280;15333;50.010;20.020;2023-03-25T16:15:55;97651.53;;;12.08;53.21
28008;BME280;15333;50.010;20.020;2023-03-25T16:18:57;97662.97;;;12.10;53.32
28008;BME280;15333;50.010;20.020;2023-03-25T16:22:02;97665.25;;;12.05;53.44
28008;BME280;15333;50.010;20.020;2023-03-25T16:25:18;97664.19;;;11.98;54.35
28008;BME280;15333;50.010;20.020;2023-03-25T16:28:26;97654.38;;;11.89;55.05
28008;BME280;15333;50.010;20.020;2023-03-25T16:31:31;97666.50;;;11.93;54.88
28008;BME280;15333;50.010;20.020;2023-03-25T16:34:34;97675.22;;;11.95;55.60
28008;BME280;15333;50.010;20.020;2023-03-25T16:37:38;97676.91;;;11.96;54.86
28008;BME280;15333;50.010;20.020;2023-03-25T16:40:41;97683.66;;;12.00;55.41
28008;BME280;15333;50.010;20.020;2023-03-25T16:43:43;97682.25;;;11.96;55.67
28008;BME280;15333;50.010;20.020;2023-03-25T16:46:44;97682.88;;;11.90;56.52
28008;BME280;15333;50.010;20.020;2023-03-25T16:49:47;97681.50;;;11.86;57.14
28008;BME280;15333;50.010;20.020;2023-03-25T16:52:50;97688.13;;;11.82;56.80
28008;BME280;15333;50.010;20.020;2023-03-25T16:56:23;97683.56;;;11.65;56.56
28008;BME280;15333;50.010;20.020;2023-03-25T16:59:27;97684.47;;;11.56;57.75
28008;BME280;15333;50.010;20.020;2023-03-25T17:02:30;97685.66;;;11.44;59.06
28008;BME280;15333;50.010;20.020;2023-03-25T17:06:01;97686.16;;;11.29;60.02
28008;BME280;15333;50.010;20.020;2023-03-25T17:09:06;97695.06;;;11.20;59.98
28008;BME280;15333;50.010;20.020;2023-03-25T17:12:16;97696.03;;;11.19;60.03
28008;BME280;15333;50.010;20.020;2023-03-25T17:15:18;97692.53;;;11.09;61.59
28008;BME280;15333;50.010;20.020;2023-03-25T17:18:23;97682.00;;;10.98;61.12
28008;BME280;15333;50.010;20.020;2023-03-25T17:21:31;97693.25;;;11.02;62.26
28008;BME280;15333;50.010;20.020;2023-03-25T17:24:39;97683.00;;;10.87;62.12
28008;BME280;15333;50.010;20.020;2023-03-25T17:27:41;97686.53;;;10.88;63.16
28008;BME280;15333;50.010;20.020;2023-03-25T17:30:44;97685.28;;;10.82;62.62
28008;BME280;15333;50.010;20.020;2023-03-25T17:33:51;97695.16;;;10.82;63.56
28008;BME280;15333;50.010;20.020;2023-03-25T17:36:57;97691.50;;;10.73;63.64
28008;BME280;15333;50.010;20.020;2023-03-25T17:40:04;97699.69;;;10.72;63.49
28008;BME280;15333;50.010;20.020;2023-03-25T17:43:17;97702.66;;;10.69;63.82
28008;BME280;15333;50.010;20.020;2023-03-25T17:46:21;97721.09;;;10.72;63.27
28008;BME280;15333;50.010;20.020;2023-03-25T17:49:23;97713.34;;;10.69;63.42
28008;BME280;15333;50.010;20.020;2023-03-25T17:52:23;97716.56;;;10.82;63.00
28008;BME280;15333;50.010;20.020;2023-03-25T17:55:27;97721.34;;;10.88;62.77
28008;BME280;15333;50.010;20.020;2023-03-25T17:58:29;97716.56;;;10.82;63.54
28008;BME280;15333;50.010;20.020;2023-03-25T18:01:30;97715.72;;;10.91;63.13
28008;BME280;15333;50.010;20.020;2023-03-25T18:04:31;97719.25;;;10.82;64.36
28008;BME280;15333;50.010;20.020;2023-03-25T18:07:33;97725.34;;;10.65;65.06
28008;BME280;15333;50.010;20.020;2023-03-25T18:10:35;97712.53;;;10.58;64.68
28008;BME280;15333;50.010;20.020;2023-03-25T18:13:37;97718.31;;;10.44;65.44
28008;BME280;15333;50.010;20.020;2023-03-25T18:16:40;97718.44;;;10.33;66.14
28008;BME280;15333;50.010;20.020;2023-03-25T18:19:41;97718.03;;;10.28;66.54
28008;BME280;15333;50.010;20.020;2023-03-25T18:22:42;97721.66;;;10.17;67.05
28008;BME280;15333;50.010;20.020;2023-03-25T18:25:44;97720.78;;;10.07;67.67
28008;BME280;15333;50.010;20.020;2023-03-25T18:28:45;97727.50;;;10.02;67.83
28008;BME280;15333;50.010;20.020;2023-03-25T18:31:47;97740.59;;;9.95;68.14